• Join FlightAware (Why Join?)
  • Login
  • US Flag 
02:23AM EDT


 

Airport Tracker/Info


-or-


 

Live Flight TrackerFlight Track Log ✈ N340WJ ✈ 26-Apr-2013 ✈ KDBQ - KFAR

Flight Track Log - Related Links

Times and Time Zones

All times are in EDT time to prevent confusion due to time zone crossing. See the N340WJ flight status page for this flight to view local times or setup timezone preferences in your user account.

Time Position Orientation Groundspeed Altitude Reporting Facility
EDT Latitude Longitude Course Direction KTS MPH feet Rate Location/Type
08:19PM 42.4150 -90.6847 318° Northwest 130 150 3,300  Level Chicago Center
08:20PM 42.4469 -90.7261 316° Northwest 133 153 4,600 1,080 Climbing Chicago Center
08:21PM 42.6098 -90.9619 318° Northwest  Level Estimated
08:21PM 42.4733 -90.7611 316° Northwest 133 153 5,600  Level Chicago Center
08:22PM 42.6444 -91.0041 318° Northwest  Level Estimated
08:22PM 42.5003 -90.7939 318° Northwest 133 153 6,500  Level Chicago Center
08:23PM 42.6790 -91.0464 318° Northwest  Level Estimated
08:23PM 42.5289 -90.8278 319° Northwest 134 154 7,400  Level Chicago Center
08:24PM 42.7135 -91.0887 318° Northwest  Level Estimated
08:24PM 42.5583 -90.8636 318° Northwest 141 162 8,500  Level Chicago Center
08:25PM 42.5894 -90.9025 317° Northwest 132 152 9,800 1,080 Climbing Chicago Center
08:26PM 42.6169 -90.9347 319° Northwest 131 151 10,800 900 Climbing Chicago Center
08:27PM 42.6433 -90.9683 317° Northwest 130 150 11,700 900 Climbing Chicago Center
08:28PM 42.6694 -91.0006 318° Northwest 129 148 12,700 960 Climbing Chicago Center
08:29PM 42.7008 -91.0383 319° Northwest 127 146 13,800 900 Climbing Chicago Center
08:30PM 42.7286 -91.0714 319° Northwest 135 155 14,600 720 Climbing Chicago Center
08:31PM 42.7583 -91.1083 318° Northwest 144 166 15,400 600 Climbing Chicago Center
08:32PM 42.7883 -91.1458 317° Northwest 146 168 15,900 240 Climbing Chicago Center
08:33PM 42.8231 -91.1881 318° Northwest 165 190 16,000  Climbing Chicago Center
08:34PM 42.8667 -91.2414 318° Northwest 177 204 16,000 -60 Level Chicago Center
08:35PM 42.8872 -91.2669 318° Northwest 177 204 15,900 -60 Descending Minneapolis Center
08:36PM 42.9294 -91.3197 318° Northwest 174 200 15,900 60 Level Minneapolis Center
08:37PM 42.9647 -91.3625 318° Northwest 173 199 16,100  Climbing Minneapolis Center
08:38PM 43.0000 -91.4056 318° Northwest 173 199 16,000 -60 Descending Minneapolis Center
08:39PM 43.0339 -91.4492 317° Northwest 171 197 16,000  Level Minneapolis Center
08:40PM 43.0753 -91.5011 317° Northwest 170 196 16,000  Level Minneapolis Center
08:41PM 43.1092 -91.5439 317° Northwest 169 194 16,000  Level Minneapolis Center
08:42PM 43.1431 -91.5856 318° Northwest 167 192 16,000  Level Minneapolis Center
08:43PM 43.1769 -91.6286 317° Northwest 167 192 16,000  Level Minneapolis Center
08:44PM 43.2111 -91.6728 317° Northwest 170 196 16,000  Level Minneapolis Center
08:45PM 43.2514 -91.7236 317° Northwest 166 191 16,100  Climbing Minneapolis Center
08:46PM 43.2892 -91.7703 318° Northwest 172 198 16,000 -60 Descending Minneapolis Center
08:47PM 43.3244 -91.8144 318° Northwest 173 199 16,000  Level Minneapolis Center
08:48PM 43.3631 -91.8633 317° Northwest 174 200 16,000  Level Minneapolis Center
08:49PM 43.3981 -91.9083 317° Northwest 174 200 16,000  Level Minneapolis Center
08:50PM 43.4356 -91.9561 317° Northwest 174 200 16,000  Level Minneapolis Center
08:51PM 43.4733 -92.0042 317° Northwest 173 199 16,000  Level Minneapolis Center
08:52PM 43.5086 -92.0497 317° Northwest 174 200 16,000  Level Minneapolis Center
08:53PM 43.5464 -92.0983 317° Northwest 172 198 16,000  Level Minneapolis Center
08:55PM 43.5817 -92.1433 317° Northwest 172 198 16,000  Level Minneapolis Center
08:56PM 43.6192 -92.1911 317° Northwest 171 197 16,000  Level Minneapolis Center
08:57PM 43.6539 -92.2356 317° Northwest 172 198 16,000  Level Minneapolis Center
08:58PM 43.6911 -92.2833 317° Northwest 171 197 16,000  Level Minneapolis Center
08:59PM 43.7253 -92.3281 317° Northwest 171 197 16,000  Level Minneapolis Center
09:00PM 43.7625 -92.3764 317° Northwest 171 197 16,000  Level Minneapolis Center
09:01PM 43.7964 -92.4203 317° Northwest 170 196 16,000  Level Minneapolis Center
09:02PM 43.8331 -92.4681 317° Northwest 169 194 16,000  Level Minneapolis Center
09:03PM 43.8675 -92.5114 318° Northwest 168 193 16,000  Level Minneapolis Center
09:04PM 43.9031 -92.5589 316° Northwest 165 190 16,000  Level Minneapolis Center
09:05PM 43.9369 -92.6031 317° Northwest 168 193 16,000  Level Minneapolis Center
09:06PM 43.9736 -92.6514 317° Northwest 170 196 16,000  Level Minneapolis Center
09:07PM 44.0081 -92.6969 316° Northwest 171 197 16,000  Level Minneapolis Center
09:08PM 44.0450 -92.7456 317° Northwest 173 199 16,000  Level Minneapolis Center
09:09PM 44.0781 -92.7892 317° Northwest 172 198 16,000  Level Minneapolis Center
09:10PM 44.1136 -92.8358 317° Northwest 176 203 16,000  Level Minneapolis Center
09:11PM 44.1478 -92.8811 316° Northwest 172 198 16,000  Level Minneapolis Center
09:12PM 44.1833 -92.9278 317° Northwest 173 199 16,000  Level Minneapolis Center
09:13PM 44.2256 -92.9842 316° Northwest 175 201 16,000  Level Minneapolis Center
09:14PM 44.2606 -93.0308 316° Northwest 174 200 16,000  Level Minneapolis Center
09:15PM 44.2958 -93.0769 317° Northwest 175 201 16,000  Level Minneapolis Center
09:16PM 44.3308 -93.1236 316° Northwest 174 200 16,000  Level Minneapolis Center
09:17PM 44.3658 -93.1700 317° Northwest 173 199 16,000  Level Minneapolis Center
09:18PM 44.4017 -93.2178 316° Northwest 176 203 16,000  Level Minneapolis Center
09:19PM 44.4447 -93.2756 316° Northwest 179 206 16,000  Level Minneapolis Center
09:20PM 44.4814 -93.3250 316° Northwest 182 209 16,000  Level Minneapolis Center
09:21PM 44.5111 -93.3642 317° Northwest 184 212 16,000  Level Minneapolis Center
09:22PM 44.5544 -93.4233 316° Northwest 181 208 16,000  Level Minneapolis Center
09:23PM 44.5906 -93.4722 316° Northwest 179 206 16,000  Level Minneapolis Center
09:25PM 44.6267 -93.5217 316° Northwest 181 208 16,000  Level Minneapolis Center
09:26PM 44.6708 -93.5800 317° Northwest 181 208 16,000  Level Minneapolis Center
09:27PM 44.7072 -93.6303 316° Northwest 183 211 16,000  Level Minneapolis Center
09:28PM 44.7447 -93.6803 317° Northwest 185 213 16,000  Level Minneapolis Center
09:29PM 44.7892 -93.7417 316° Northwest 186 214 16,000  Level Minneapolis Center
09:30PM 44.8264 -93.7922 316° Northwest 186 214 16,000  Level Minneapolis Center
09:31PM 44.8633 -93.8431 316° Northwest 185 213 16,000 -60 Level Minneapolis Center
09:32PM 44.9089 -93.9036 317° Northwest 188 216 15,900 -60 Descending Minneapolis Center
09:33PM 44.9461 -93.9550 316° Northwest 187 215 15,900  Level Minneapolis Center
09:34PM 44.9833 -94.0069 315° West 188 216 15,900  Level Minneapolis Center
09:35PM 45.0211 -94.0578 316° Northwest 188 216 15,900  Level Minneapolis Center
09:36PM 45.0581 -94.1089 316° Northwest 186 214 15,900  Level Minneapolis Center
09:37PM 45.0950 -94.1611 315° West 189 217 15,900  Level Minneapolis Center
09:38PM 45.1397 -94.2225 316° Northwest 187 215 15,900  Level Minneapolis Center
09:39PM 45.1844 -94.2856 315° West 188 216 15,900  Level Minneapolis Center
09:40PM 45.2214 -94.3372 315° West 186 214 15,900  Level Minneapolis Center
09:41PM 45.2592 -94.3886 316° Northwest 188 216 15,900  Level Minneapolis Center
09:42PM 45.2958 -94.4394 316° Northwest 185 213 15,900  Level Minneapolis Center
09:43PM 45.3331 -94.4914 316° Northwest 187 215 15,900  Level Minneapolis Center
09:45PM 45.3689 -94.5419 315° West 183 211 15,900  Level Minneapolis Center
09:46PM 45.4056 -94.5933 315° West 185 213 16,000  Climbing Minneapolis Center
09:47PM 45.4494 -94.6550 315° West 185 213 16,000  Level Minneapolis Center
09:48PM 45.4861 -94.7072 315° West 186 214 16,000  Level Minneapolis Center
09:49PM 45.5225 -94.7589 315° West 186 214 16,000  Level Minneapolis Center
09:50PM 45.5583 -94.8103 315° West 185 213 16,000  Level Minneapolis Center
09:51PM 45.6017 -94.8719 315° West 184 212 16,000  Level Minneapolis Center
09:52PM 45.6378 -94.9225 316° Northwest 183 211 16,000  Level Minneapolis Center
09:53PM 45.6739 -94.9739 315° West 184 212 16,000  Level Minneapolis Center
09:54PM 45.7169 -95.0353 315° West 183 211 16,000  Level Minneapolis Center
09:55PM 45.7469 -95.0783 315° West 181 208 16,000  Level Minneapolis Center
09:56PM 45.7975 -95.1506 315° West 183 211 16,000  Level Minneapolis Center
09:57PM 45.8333 -95.2025 315° West 184 212 16,000  Level Minneapolis Center
09:58PM 45.8692 -95.2550 314° West 184 212 16,000  Level Minneapolis Center
09:59PM 45.9047 -95.3058 315° West 182 209 16,000  Level Minneapolis Center
10:00PM 45.9403 -95.3589 314° West 184 212 16,000  Level Minneapolis Center
10:01PM 45.9767 -95.4092 316° Northwest 183 211 16,000  Level Minneapolis Center
10:02PM 46.0136 -95.4633 314° West 188 216 16,000  Level Minneapolis Center
10:03PM 46.0489 -95.5161 314° West 186 214 16,000  Level Minneapolis Center
10:04PM 46.0919 -95.5797 314° West 185 213 16,000  Level Minneapolis Center
10:05PM 46.1289 -95.6303 317° Northwest 184 212 16,000  Level Minneapolis Center
10:06PM 46.1647 -95.6842 314° West 186 214 16,000  Level Minneapolis Center
10:08PM 46.2008 -95.7386 314° West 188 216 16,000  Level Minneapolis Center
10:09PM 46.2433 -95.8006 315° West 183 211 16,000  Level Minneapolis Center
10:10PM 46.2847 -95.8614 315° West 188 216 16,000 -180 Level Minneapolis Center
10:11PM 46.3286 -95.9258 315° West 185 213 15,700 -360 Descending Minneapolis Center
10:12PM 46.3675 -95.9856 313° West 198 228 15,200 -540 Descending Minneapolis Center
10:13PM 46.4050 -96.0378 316° Northwest 196 226 14,600 -660 Descending Minneapolis Center
10:14PM 46.4444 -96.0958 315° West 196 226 13,900 -900 Descending Minneapolis Center
10:15PM 46.4836 -96.1556 314° West 199 229 12,800 -1,080 Descending Minneapolis Center
10:16PM 46.5214 -96.2097 315° West 198 228 11,800 -1,080 Descending Minneapolis Center
10:17PM 46.5661 -96.2631 321° Northwest 200 230 10,700 -1,080 Descending Minneapolis Center
10:18PM 46.6008 -96.3075 319° Northwest 201 231 9,700 -1,260 Descending Minneapolis Center
10:19PM 46.6547 -96.3725 320° Northwest 198 228 8,200 -1,320 Descending Minneapolis Center
10:20PM 46.6936 -96.4206 320° Northwest 190 219 7,100 -1,080 Descending Minneapolis Center
10:21PM 46.7342 -96.4711 319° Northwest 187 215 6,100 -1,020 Descending Minneapolis Center
10:22PM 46.7742 -96.5208 320° Northwest 184 212 5,100 -780 Descending Minneapolis Center
10:23PM 46.8119 -96.5681 319° Northwest 169 194 4,600 -540 Descending Minneapolis Center
10:24PM 46.8469 -96.6111 320° Northwest 171 197 4,000 -600 Descending Minneapolis Center
10:25PM 46.8811 -96.6547 319° Northwest 158 182 3,500 -720 Descending Minneapolis Center
10:26PM 46.9186 -96.7006 320° Northwest 167 192 2,400 -780 Descending Minneapolis Center
10:28PM 46.9569 -96.7531 317° Northwest 154 177 1,800 -540 Descending Minneapolis Center
10:29PM 46.9619 -96.8056 278° West 127 146 1,400 -420 Descending Minneapolis Center